Time;durP1;ratioP1;P1;durP2;ratioP2;P2;SDS_P1;SDS_P2;PMS_P1;PMS_P2;Temp;Humidity;BMP_temperature;BMP_pressure;BME280_temperature;BME280_humidity;BME280_pressure;Samples;Min_cycle;Max_cycle;Signal;HPM_P1;HPM_P2
2024/01/24 00:00:35;;;;;;;14.23;10.52;;;10.40;97.30;;;;;;5093922;28;20028;-55
2024/01/24 00:03:01;;;;;;;15.45;9.75;;;10.40;97.30;;;;;;5093996;28;20028;-59
2024/01/24 00:05:29;;;;;;;13.80;9.02;;;10.40;97.40;;;;;;5074656;28;20028;-57
2024/01/24 00:07:56;;;;;;;15.30;9.75;;;10.50;97.30;;;;;;5094204;28;20099;-57
2024/01/24 00:10:23;;;;;;;14.52;8.98;;;10.50;97.40;;;;;;5093973;28;20027;-57
2024/01/24 00:12:51;;;;;;;12.52;8.95;;;10.50;97.40;;;;;;5076135;28;20392;-56
2024/01/24 00:15:21;;;;;;;11.77;7.68;;;10.50;97.30;;;;;;5093370;28;20030;-56
2024/01/24 00:17:48;;;;;;;10.50;7.03;;;10.50;97.40;;;;;;5094141;28;20028;-57
2024/01/24 00:20:13;;;;;;;10.73;6.28;;;10.60;97.40;;;;;;5093956;28;20052;-56
2024/01/24 00:22:43;;;;;;;9.68;6.10;;;10.50;97.40;;;;;;5093679;28;20459;-54
2024/01/24 00:25:10;;;;;;;;;;;10.60;97.40;;;;;;5094529;28;20044;-59
2024/01/24 00:27:38;;;;;;;10.70;5.55;;;10.50;97.40;;;;;;5093880;28;20355;-58
2024/01/24 00:30:04;;;;;;;9.73;6.05;;;10.60;97.40;;;;;;5093730;28;20024;-58
2024/01/24 00:32:32;;;;;;;12.25;5.55;;;10.60;97.50;;;;;;5093176;28;20469;-58
2024/01/24 00:34:59;;;;;;;11.52;4.82;;;10.60;97.50;;;;;;5093856;28;20098;-59
2024/01/24 00:37:26;;;;;;;10.75;4.68;;;10.70;97.50;;;;;;5093284;28;20039;-57
2024/01/24 00:39:55;;;;;;;10.00;4.43;;;10.70;97.50;;;;;;5076040;28;20081;-58
2024/01/24 00:42:22;;;;;;;8.52;4.22;;;10.70;97.40;;;;;;5093674;28;20028;-56
2024/01/24 00:44:50;;;;;;;9.55;4.20;;;10.70;97.30;;;;;;5092882;28;20039;-58
2024/01/24 00:47:19;;;;;;;10.15;4.10;;;10.70;97.40;;;;;;5075788;28;20093;-59
2024/01/24 00:49:48;;;;;;;9.93;3.80;;;10.70;97.40;;;;;;5093921;28;20028;-51
2024/01/24 00:52:15;;;;;;;10.68;3.92;;;10.70;97.40;;;;;;5093637;28;20507;-56
2024/01/24 00:54:42;;;;;;;11.45;4.32;;;10.70;97.40;;;;;;5092915;28;20039;-60
2024/01/24 00:57:09;;;;;;;13.10;4.50;;;10.80;97.40;;;;;;5093305;28;20078;-58
2024/01/24 00:59:36;;;;;;;9.05;4.45;;;10.80;97.40;;;;;;5092861;28;20032;-55
2024/01/24 01:02:03;;;;;;;11.93;4.13;;;10.80;97.30;;;;;;5075578;28;20368;-52
2024/01/24 01:04:32;;;;;;;18.52;5.95;;;10.80;97.30;;;;;;5092515;28;20812;-51
2024/01/24 01:06:58;;;;;;;13.07;4.00;;;10.80;97.30;;;;;;5092337;28;20444;-48
2024/01/24 01:09:25;;;;;;;15.38;5.47;;;10.80;97.30;;;;;;5093064;28;20045;-50
2024/01/24 01:11:51;;;;;;;12.98;5.30;;;10.90;97.30;;;;;;5093198;28;20066;-50
2024/01/24 01:14:20;;;;;;;19.48;4.85;;;10.90;97.20;;;;;;5093000;28;20448;-47
2024/01/24 01:16:46;;;;;;;14.10;4.37;;;10.90;97.20;;;;;;5092524;28;20039;-47
2024/01/24 01:19:13;;;;;;;13.07;4.80;;;10.90;97.10;;;;;;5074837;28;20047;-52
2024/01/24 01:21:40;;;;;;;10.73;3.67;;;10.90;97.00;;;;;;5092202;28;20456;-48
2024/01/24 01:24:12;;;;;;;11.43;4.03;;;10.90;97.00;;;;;;5092906;28;20039;-49
2024/01/24 01:26:40;;;;;;;14.07;3.92;;;10.90;96.90;;;;;;5092828;28;20324;-51
2024/01/24 01:29:06;;;;;;;10.13;3.28;;;10.90;96.90;;;;;;5092056;28;20039;-51
2024/01/24 01:31:33;;;;;;;15.80;3.75;;;10.90;96.90;;;;;;5092973;28;20024;-54
2024/01/24 01:34:04;;;;;;;16.35;4.20;;;10.90;96.80;;;;;;5092669;28;20027;-49
2024/01/24 01:36:30;;;;;;;11.63;3.65;;;10.90;96.80;;;;;;5091785;28;20028;-50
2024/01/24 01:38:57;;;;;;;12.32;3.47;;;10.90;96.80;;;;;;5092526;28;20036;-51
2024/01/24 01:41:24;;;;;;;10.35;4.57;;;10.90;96.70;;;;;;5092495;28;20075;-48
2024/01/24 01:43:51;;;;;;;14.20;3.65;;;10.90;96.70;;;;;;5092553;28;20071;-53
2024/01/24 01:46:18;;;;;;;17.10;4.20;;;10.90;96.60;;;;;;5091955;28;20563;-50
2024/01/24 01:48:44;;;;;;;15.32;3.13;;;10.90;96.60;;;;;;5092363;28;20016;-50
2024/01/24 01:51:12;;;;;;;17.48;3.42;;;10.90;96.60;;;;;;5091181;28;20118;-47
2024/01/24 01:53:39;;;;;;;12.10;3.53;;;10.90;96.60;;;;;;5092327;28;20036;-49
2024/01/24 01:56:10;;;;;;;19.10;3.88;;;10.90;96.50;;;;;;5092203;28;20089;-47
2024/01/24 01:58:39;;;;;;;12.90;4.55;;;10.90;96.50;;;;;;5091617;28;20499;-48
2024/01/24 02:01:07;;;;;;;20.85;3.53;;;10.90;96.30;;;;;;5092215;28;20476;-48
2024/01/24 02:03:34;;;;;;;12.05;3.05;;;10.90;96.30;;;;;;5091665;28;20028;-49
2024/01/24 02:06:01;;;;;;;12.75;2.88;;;10.90;96.20;;;;;;5092093;28;20482;-49
2024/01/24 02:08:28;;;;;;;15.38;3.72;;;10.90;96.10;;;;;;5091208;28;20437;-46
2024/01/24 02:10:55;;;;;;;11.13;2.67;;;10.90;96.10;;;;;;5091765;28;20480;-63
2024/01/24 02:13:31;;;;;;;10.13;2.60;;;10.90;95.90;;;;;;5074317;28;20050;-58
2024/01/24 02:16:03;;;;;;;8.15;3.38;;;11.00;95.80;;;;;;5091398;28;20718;-58
2024/01/24 02:18:30;;;;;;;10.85;3.10;;;10.90;95.90;;;;;;5091982;28;20157;-50
2024/01/24 02:20:56;;;;;;;7.93;1.63;;;10.90;96.00;;;;;;5091607;28;20052;-53
2024/01/24 02:23:25;;;;;;;5.63;1.92;;;11.00;96.10;;;;;;5075971;28;20453;-62
2024/01/24 02:25:55;;;;;;;7.70;1.90;;;10.90;96.10;;;;;;5071859;28;20029;-61
2024/01/24 02:28:25;;;;;;;;;;;10.90;96.20;;;;;;5085875;28;20040;-61
2024/01/24 02:30:53;;;;;;;10.43;2.08;;;10.90;96.40;;;;;;5091924;28;19912;-59
2024/01/24 02:33:20;;;;;;;10.50;1.67;;;10.90;96.30;;;;;;5082171;28;20378;-56
2024/01/24 02:35:50;;;;;;;6.65;1.92;;;10.90;96.40;;;;;;5071771;28;20032;-61
2024/01/24 02:38:17;;;;;;;10.30;2.45;;;10.80;96.40;;;;;;5071235;28;20104;-59
2024/01/24 02:40:43;;;;;;;8.23;2.60;;;10.90;96.40;;;;;;5090537;28;20054;-55
2024/01/24 02:43:09;;;;;;;8.20;2.08;;;10.80;96.40;;;;;;5088547;28;20025;-50
2024/01/24 02:45:36;;;;;;;12.38;2.22;;;10.80;96.30;;;;;;5071675;28;20471;-50
2024/01/24 02:48:03;;;;;;;6.88;1.77;;;10.80;96.30;;;;;;5053859;28;20483;-51
2024/01/24 02:50:30;;;;;;;8.77;1.60;;;10.90;96.10;;;;;;5088105;28;20082;-47
2024/01/24 02:52:56;;;;;;;12.32;2.33;;;10.80;96.00;;;;;;5091485;28;20036;-50
2024/01/24 02:55:23;;;;;;;13.30;2.67;;;10.70;95.80;;;;;;5091825;28;20035;-52
2024/01/24 02:57:52;;;;;;;9.77;1.85;;;10.70;95.80;;;;;;5091413;28;20051;-50
2024/01/24 03:00:19;;;;;;;16.95;3.88;;;10.80;95.50;;;;;;5070736;28;20326;-50
2024/01/24 03:02:48;;;;;;;10.70;2.40;;;10.80;95.30;;;;;;5071736;28;20112;-50
2024/01/24 03:05:17;;;;;;;9.65;2.97;;;10.80;95.30;;;;;;5075292;28;20028;-47
2024/01/24 03:07:43;;;;;;;10.63;3.47;;;10.80;95.00;;;;;;5075095;28;20024;-50
2024/01/24 03:10:12;;;;;;;14.77;2.95;;;10.90;94.90;;;;;;5074936;28;20020;-53
2024/01/24 03:12:41;;;;;;;13.33;2.37;;;10.80;94.80;;;;;;5082516;28;20119;-47
2024/01/24 03:15:08;;;;;;;7.28;2.97;;;10.80;94.70;;;;;;5095161;28;20063;-49
2024/01/24 03:17:35;;;;;;;11.98;2.70;;;10.90;94.60;;;;;;5095179;28;20046;-50
2024/01/24 03:20:01;;;;;;;10.18;3.00;;;10.90;94.50;;;;;;5081426;28;20032;-46
2024/01/24 03:22:27;;;;;;;8.98;2.08;;;10.90;94.40;;;;;;5077267;28;20028;-49
2024/01/24 03:24:54;;;;;;;11.60;3.00;;;10.90;94.40;;;;;;5095211;28;20016;-57
2024/01/24 03:27:20;;;;;;;14.60;2.60;;;10.90;94.30;;;;;;5094501;28;20111;-60
2024/01/24 03:29:49;;;;;;;8.35;2.17;;;10.90;94.40;;;;;;5094815;28;20449;-59
2024/01/24 03:32:19;;;;;;;14.43;2.73;;;10.90;94.30;;;;;;5095078;28;20081;-52
2024/01/24 03:34:57;;;;;;;13.30;3.95;;;10.90;94.40;;;;;;5094457;28;20419;-56
2024/01/24 03:37:24;;;;;;;13.60;3.40;;;10.90;94.30;;;;;;5095183;28;20339;-58
2024/01/24 03:39:53;;;;;;;25.55;3.40;;;10.80;94.00;;;;;;5094318;28;20070;-58
2024/01/24 03:42:22;;;;;;;14.35;4.13;;;10.80;93.90;;;;;;5094839;28;20546;-55
2024/01/24 03:44:49;;;;;;;12.95;2.63;;;10.80;93.70;;;;;;5094472;28;20070;-50
2024/01/24 03:47:16;;;;;;;14.40;3.50;;;10.80;93.70;;;;;;5076989;28;20028;-49
2024/01/24 03:49:44;;;;;;;13.60;2.83;;;10.80;93.40;;;;;;5093966;28;20070;-49
2024/01/24 03:52:09;;;;;;;12.35;2.75;;;10.80;93.30;;;;;;5094449;28;20795;-50
2024/01/24 03:54:37;;;;;;;11.52;3.47;;;10.80;93.30;;;;;;5094023;28;20080;-53
2024/01/24 03:57:05;;;;;;;13.18;3.13;;;10.80;92.80;;;;;;5094243;28;20028;-52
2024/01/24 03:59:32;;;;;;;16.45;3.75;;;10.70;92.30;;;;;;5094036;28;20314;-49
2024/01/24 04:01:58;;;;;;;13.63;3.22;;;10.70;92.00;;;;;;5094312;28;20034;-50
2024/01/24 04:04:24;;;;;;;15.90;3.65;;;10.70;91.80;;;;;;5094356;28;20028;-50
2024/01/24 04:06:51;;;;;;;16.35;3.50;;;10.70;91.60;;;;;;5093669;28;20038;-48
2024/01/24 04:09:18;;;;;;;16.73;3.40;;;10.70;91.30;;;;;;5075662;28;20020;-51
2024/01/24 04:11:45;;;;;;;26.00;4.80;;;10.70;90.60;;;;;;5093318;28;20341;-48
2024/01/24 04:14:15;;;;;;;18.00;5.43;;;10.70;90.10;;;;;;5093462;28;20389;-50
2024/01/24 04:16:42;;;;;;;16.58;4.55;;;10.70;89.70;;;;;;5093900;28;20107;-51
2024/01/24 04:19:11;;;;;;;13.55;3.85;;;10.70;89.30;;;;;;5092666;28;20035;-49
2024/01/24 04:21:43;;;;;;;19.05;4.43;;;10.70;88.80;;;;;;5075072;28;20048;-47
2024/01/24 04:24:10;;;;;;;11.27;3.13;;;10.70;89.00;;;;;;5093157;28;20043;-49
2024/01/24 04:26:36;;;;;;;24.98;4.18;;;10.60;88.90;;;;;;5093717;28;20085;-49
2024/01/24 04:29:05;;;;;;;17.95;4.15;;;10.60;89.00;;;;;;5075369;28;20591;-48
2024/01/24 04:31:31;;;;;;;13.57;5.53;;;10.60;89.00;;;;;;5075897;28;20032;-47
2024/01/24 04:33:57;;;;;;;19.42;4.07;;;10.60;89.00;;;;;;5093356;28;20035;-48
2024/01/24 04:36:26;;;;;;;17.10;6.00;;;10.60;88.80;;;;;;5092844;28;20403;-48
2024/01/24 04:38:53;;;;;;;29.23;4.70;;;10.60;88.80;;;;;;5093451;28;20038;-49
2024/01/24 04:41:22;;;;;;;22.17;3.75;;;10.60;88.90;;;;;;5075320;28;20066;-47
2024/01/24 04:43:49;;;;;;;25.23;4.70;;;10.60;88.80;;;;;;5092904;28;20024;-47
2024/01/24 04:46:15;;;;;;;25.90;5.15;;;10.60;88.90;;;;;;5093107;28;20411;-49
2024/01/24 04:48:44;;;;;;;18.48;4.50;;;10.50;89.00;;;;;;5093147;28;20016;-47
2024/01/24 04:51:11;;;;;;;19.17;3.85;;;10.50;89.00;;;;;;5092927;28;20024;-49
2024/01/24 04:53:37;;;;;;;23.08;5.00;;;10.40;89.20;;;;;;5091973;28;20670;-47
2024/01/24 04:56:04;;;;;;;22.35;4.53;;;10.40;88.80;;;;;;5092574;28;20028;-46
2024/01/24 04:58:31;;;;;;;30.08;7.10;;;10.40;88.50;;;;;;5092484;28;20529;-47
2024/01/24 05:00:58;;;;;;;21.75;5.22;;;10.40;88.80;;;;;;5092849;28;20084;-46
2024/01/24 05:03:25;;;;;;;20.05;5.70;;;10.40;88.30;;;;;;5092382;28;20095;-47
2024/01/24 05:05:52;;;;;;;19.00;4.45;;;10.40;87.50;;;;;;5074713;28;20028;-49
2024/01/24 05:08:20;;;;;;;18.80;5.07;;;10.50;87.40;;;;;;5092822;28;20112;-47
2024/01/24 05:10:48;;;;;;;23.48;4.72;;;10.50;87.40;;;;;;5092219;28;20487;-47
2024/01/24 05:13:16;;;;;;;13.05;4.80;;;10.40;87.40;;;;;;5092851;28;20032;-47
2024/01/24 05:15:43;;;;;;;27.40;5.43;;;10.40;87.40;;;;;;5092618;28;20024;-49
2024/01/24 05:18:10;;;;;;;19.13;5.72;;;10.40;87.20;;;;;;5092047;28;20044;-45
2024/01/24 05:20:37;;;;;;;24.13;5.38;;;10.50;86.70;;;;;;5092136;28;20388;-47
2024/01/24 05:23:04;;;;;;;24.70;4.40;;;10.50;86.60;;;;;;5092374;28;20036;-48
2024/01/24 05:25:31;;;;;;;29.27;6.72;;;10.40;86.30;;;;;;5091112;28;20546;-46
2024/01/24 05:27:56;;;;;;;26.27;6.10;;;10.50;85.70;;;;;;5092343;28;20039;-49
2024/01/24 05:30:23;;;;;;;21.73;5.50;;;10.50;85.70;;;;;;5092266;28;20016;-49
2024/01/24 05:32:50;;;;;;;22.65;4.25;;;10.50;85.10;;;;;;5073636;28;20039;-47
2024/01/24 05:35:20;;;;;;;20.48;5.18;;;10.50;84.80;;;;;;5092232;28;20028;-46
2024/01/24 05:37:46;;;;;;;24.95;5.30;;;10.40;84.50;;;;;;5092238;28;20038;-47
2024/01/24 05:40:13;;;;;;;24.90;5.53;;;10.40;84.40;;;;;;5092053;28;20306;-46
2024/01/24 05:42:40;;;;;;;27.10;6.53;;;10.30;84.60;;;;;;5091418;28;20143;-46
2024/01/24 05:45:10;;;;;;;33.28;5.85;;;10.30;84.50;;;;;;5092023;28;20098;-47
2024/01/24 05:47:37;;;;;;;;;;;10.20;84.80;;;;;;5092443;28;20035;-48
2024/01/24 05:50:09;;;;;;;25.15;6.32;;;10.30;85.00;;;;;;5091908;28;19904;-50
2024/01/24 05:52:35;;;;;;;21.63;6.45;;;10.20;84.90;;;;;;5091265;28;20486;-47
2024/01/24 05:55:01;;;;;;;19.73;5.35;;;10.30;84.60;;;;;;5091597;28;20028;-49
2024/01/24 05:57:27;;;;;;;21.63;7.38;;;10.30;84.80;;;;;;5091080;28;20334;-45
2024/01/24 05:59:53;;;;;;;30.05;6.53;;;10.20;84.60;;;;;;5073511;28;20047;-49
2024/01/24 06:02:20;;;;;;;22.58;7.50;;;10.30;84.90;;;;;;5091426;28;20040;-49
2024/01/24 06:04:48;;;;;;;23.73;5.78;;;10.30;85.40;;;;;;5091254;28;20034;-50
2024/01/24 06:07:15;;;;;;;21.02;5.28;;;10.20;85.50;;;;;;5091631;28;20024;-47
2024/01/24 06:09:42;;;;;;;21.65;5.97;;;10.20;85.80;;;;;;5090982;28;20467;-48
2024/01/24 06:12:10;;;;;;;30.20;6.90;;;10.20;86.20;;;;;;5091410;28;20074;-46
2024/01/24 06:14:37;;;;;;;26.15;6.63;;;10.20;86.30;;;;;;5090858;28;20028;-47
2024/01/24 06:17:04;;;;;;;27.30;6.45;;;10.20;86.00;;;;;;5091387;28;20024;-49
2024/01/24 06:19:30;;;;;;;31.15;8.35;;;10.20;86.00;;;;;;5091249;28;20363;-48
2024/01/24 06:21:57;;;;;;;43.80;11.23;;;10.20;86.10;;;;;;5090488;28;20094;-49
2024/01/24 06:24:24;;;;;;;39.17;8.73;;;10.20;85.90;;;;;;5091467;28;20020;-47
2024/01/24 06:26:51;;;;;;;31.52;7.68;;;10.20;85.40;;;;;;5091152;28;20031;-46
2024/01/24 06:29:19;;;;;;;39.40;8.50;;;10.20;85.60;;;;;;5090735;28;20032;-48
2024/01/24 06:31:45;;;;;;;36.55;7.15;;;10.10;85.20;;;;;;5090969;28;20364;-46
2024/01/24 06:34:12;;;;;;;30.05;7.60;;;10.10;84.80;;;;;;5090804;28;20012;-48
2024/01/24 06:36:41;;;;;;;52.92;9.57;;;10.10;84.70;;;;;;5091653;28;20028;-46
2024/01/24 06:39:07;;;;;;;29.90;8.23;;;10.20;84.00;;;;;;5095402;28;20024;-46
2024/01/24 06:41:34;;;;;;;30.90;8.13;;;10.20;83.90;;;;;;5077548;28;20097;-47
2024/01/24 06:44:05;;;;;;;38.38;8.68;;;10.10;83.50;;;;;;5095624;28;20016;-48
2024/01/24 06:46:33;;;;;;;33.05;6.40;;;10.20;83.00;;;;;;5095246;28;20360;-50
2024/01/24 06:48:59;;;;;;;33.28;7.93;;;10.20;82.50;;;;;;5096032;28;20012;-46
2024/01/24 06:51:26;;;;;;;33.22;8.73;;;10.20;82.50;;;;;;5095409;28;20478;-45
2024/01/24 06:53:53;;;;;;;26.30;7.32;;;10.10;82.30;;;;;;5094933;28;20040;-47
2024/01/24 06:56:21;;;;;;;45.15;10.35;;;10.10;82.30;;;;;;5094876;28;20055;-51
2024/01/24 06:58:46;;;;;;;29.00;8.93;;;10.10;82.10;;;;;;5095395;28;20078;-48
2024/01/24 07:01:13;;;;;;;42.95;8.38;;;10.10;82.00;;;;;;5077420;28;20020;-47
2024/01/24 07:03:42;;;;;;;26.90;7.43;;;10.00;82.30;;;;;;5094694;28;20027;-47
2024/01/24 07:06:12;;;;;;;35.38;10.18;;;10.00;82.10;;;;;;5095441;28;20028;-46
2024/01/24 07:08:40;;;;;;;36.72;8.23;;;9.90;82.20;;;;;;5095237;28;20103;-50
2024/01/24 07:11:07;;;;;;;29.45;7.13;;;9.90;81.70;;;;;;5094708;28;20420;-46
2024/01/24 07:13:36;;;;;;;28.35;7.00;;;9.90;81.70;;;;;;5094853;28;20421;-47
2024/01/24 07:16:08;;;;;;;29.15;8.10;;;9.90;81.10;;;;;;5094803;28;20028;-46
2024/01/24 07:18:35;;;;;;;25.02;6.88;;;10.00;80.90;;;;;;5077057;28;20028;-48
2024/01/24 07:21:06;;;;;;;41.40;8.98;;;9.90;81.10;;;;;;5076380;28;20063;-49
2024/01/24 07:23:32;;;;;;;32.35;7.63;;;9.90;80.60;;;;;;5075081;28;20052;-47
2024/01/24 07:25:58;;;;;;;27.35;8.25;;;9.90;80.20;;;;;;5076952;28;20074;-48
2024/01/24 07:28:23;;;;;;;34.35;8.15;;;9.90;80.00;;;;;;5094375;28;20083;-46
2024/01/24 07:30:50;;;;;;;35.58;6.78;;;9.90;80.20;;;;;;5094818;28;20599;-50
2024/01/24 07:33:16;;;;;;;35.47;8.38;;;9.90;79.90;;;;;;5077047;28;20027;-47
2024/01/24 07:35:43;;;;;;;33.90;8.10;;;9.90;80.30;;;;;;5076371;28;20031;-48
2024/01/24 07:38:10;;;;;;;31.58;6.88;;;9.80;80.20;;;;;;5094817;28;20471;-49
2024/01/24 07:40:37;;;;;;;32.67;8.95;;;9.90;79.90;;;;;;5094549;28;20413;-46
2024/01/24 07:43:03;;;;;;;31.63;6.95;;;9.80;79.90;;;;;;5094940;28;20104;-46
2024/01/24 07:45:30;;;;;;;33.40;7.72;;;9.80;79.20;;;;;;5094162;28;20036;-47
2024/01/24 07:47:58;;;;;;;36.83;7.88;;;9.90;79.60;;;;;;5094604;28;20352;-47
2024/01/24 07:50:27;;;;;;;24.67;6.25;;;9.80;79.80;;;;;;5093889;28;20032;-46
2024/01/24 07:52:55;;;;;;;35.60;9.63;;;9.80;79.70;;;;;;5093925;28;20360;-48
2024/01/24 07:55:22;;;;;;;25.40;6.88;;;9.80;79.20;;;;;;5094673;28;20330;-47
2024/01/24 07:57:49;;;;;;;28.23;7.53;;;9.80;79.80;;;;;;5093856;28;20153;-48
2024/01/24 08:00:16;;;;;;;29.67;7.03;;;9.70;79.90;;;;;;5076305;28;20043;-45
2024/01/24 08:02:44;;;;;;;32.70;8.63;;;9.80;79.50;;;;;;5092981;28;20106;-46
2024/01/24 08:05:14;;;;;;;31.75;8.05;;;9.70;79.70;;;;;;5093916;28;20095;-46
2024/01/24 08:07:41;;;;;;;35.45;8.63;;;9.70;79.70;;;;;;5093704;28;20020;-48
2024/01/24 08:10:10;;;;;;;34.70;8.48;;;9.60;80.20;;;;;;5093497;28;20420;-48
2024/01/24 08:12:38;;;;;;;30.73;9.02;;;9.60;80.40;;;;;;5092811;28;20089;-48
2024/01/24 08:15:06;;;;;;;30.20;8.05;;;9.60;80.20;;;;;;5093955;28;20326;-47
2024/01/24 08:17:39;;;;;;;37.72;8.43;;;9.60;80.30;;;;;;5093692;28;20031;-49
2024/01/24 08:20:08;;;;;;;31.00;8.18;;;9.50;80.00;;;;;;5093696;28;20020;-49
2024/01/24 08:22:35;;;;;;;33.45;9.75;;;9.60;80.10;;;;;;5094025;28;20038;-51
2024/01/24 08:25:03;;;;;;;35.42;7.82;;;9.60;80.20;;;;;;5093382;28;20035;-46
2024/01/24 08:27:30;;;;;;;33.05;6.90;;;9.50;80.10;;;;;;5093658;28;20142;-46
2024/01/24 08:29:57;;;;;;;31.83;10.27;;;9.60;80.40;;;;;;5075784;28;20368;-49
2024/01/24 08:32:26;;;;;;;28.90;7.65;;;9.50;80.30;;;;;;5093286;28;20410;-47
2024/01/24 08:34:53;;;;;;;33.63;7.60;;;9.60;80.10;;;;;;5093353;28;20484;-50
2024/01/24 08:37:20;;;;;;;36.13;8.70;;;9.60;80.30;;;;;;5093601;28;20119;-45
2024/01/24 08:39:46;;;;;;;32.35;7.57;;;9.50;80.20;;;;;;5093686;28;20032;-47
2024/01/24 08:42:13;;;;;;;35.08;8.95;;;9.50;80.40;;;;;;5093388;28;20031;-49
2024/01/24 08:44:40;;;;;;;26.52;8.73;;;9.50;80.10;;;;;;5092943;28;20052;-47
2024/01/24 08:47:06;;;;;;;27.38;8.27;;;9.50;80.20;;;;;;5093545;28;20026;-50
2024/01/24 08:49:33;;;;;;;36.25;7.28;;;9.50;80.30;;;;;;5075411;28;20024;-50
2024/01/24 08:51:59;;;;;;;37.47;9.45;;;9.60;80.60;;;;;;5092679;28;20456;-48
2024/01/24 08:54:26;;;;;;;28.65;7.15;;;9.70;79.90;;;;;;5092873;28;20032;-46
2024/01/24 08:56:52;;;;;;;43.80;8.13;;;9.70;79.70;;;;;;5093163;28;20114;-49
2024/01/24 08:59:19;;;;;;;39.05;9.40;;;9.80;79.40;;;;;;5075095;28;20503;-46
2024/01/24 09:01:45;;;;;;;28.23;8.50;;;9.80;79.50;;;;;;5091852;28;20060;-49
2024/01/24 09:04:12;;;;;;;27.27;7.50;;;9.80;79.40;;;;;;5092350;28;20024;-46
2024/01/24 09:06:42;;;;;;;46.85;9.73;;;9.80;79.60;;;;;;5074544;28;20089;-46
2024/01/24 09:09:08;;;;;;;27.58;7.57;;;9.80;79.60;;;;;;5092702;28;20040;-47
2024/01/24 09:11:34;;;;;;;36.42;7.82;;;9.90;79.40;;;;;;5092375;28;20052;-47
2024/01/24 09:14:01;;;;;;;29.50;7.38;;;9.90;79.40;;;;;;5093273;28;20032;-47
2024/01/24 09:16:33;;;;;;;42.78;10.65;;;9.90;79.30;;;;;;5092724;28;20024;-47
2024/01/24 09:19:00;;;;;;;33.95;8.02;;;9.90;79.30;;;;;;5092926;28;20089;-47
2024/01/24 09:21:30;;;;;;;31.92;7.90;;;9.90;79.20;;;;;;5092157;28;20044;-49
2024/01/24 09:23:57;;;;;;;24.25;6.47;;;9.90;79.00;;;;;;5092710;28;20024;-47
2024/01/24 09:26:24;;;;;;;29.55;7.72;;;9.90;79.50;;;;;;5074651;28;20603;-46
2024/01/24 09:28:50;;;;;;;32.13;8.65;;;9.90;79.40;;;;;;5074044;28;20024;-46
2024/01/24 09:31:17;;;;;;;24.70;6.50;;;9.90;79.10;;;;;;5074841;28;20020;-49
2024/01/24 09:33:48;;;;;;;29.50;7.18;;;9.90;79.10;;;;;;5092124;28;20023;-46
2024/01/24 09:36:15;;;;;;;29.40;8.55;;;9.90;79.20;;;;;;5074520;28;20445;-46
2024/01/24 09:38:47;;;;;;;29.70;8.20;;;9.90;79.40;;;;;;5092540;28;20032;-49
2024/01/24 09:41:20;;;;;;;34.13;7.13;;;9.90;78.60;;;;;;5092413;28;20043;-47
2024/01/24 09:43:48;;;;;;;28.38;7.80;;;9.90;79.20;;;;;;5092085;28;20130;-47
2024/01/24 09:46:18;;;;;;;34.20;7.35;;;9.90;79.10;;;;;;5091862;28;20024;-47
2024/01/24 09:48:48;;;;;;;28.23;8.48;;;9.90;79.00;;;;;;5092568;28;20028;-50
2024/01/24 09:51:16;;;;;;;26.77;7.85;;;9.90;78.90;;;;;;5092159;28;20032;-47
2024/01/24 09:53:47;;;;;;;35.22;8.23;;;9.90;79.40;;;;;;5091675;28;20028;-47
2024/01/24 09:56:15;;;;;;;32.72;8.50;;;9.90;78.70;;;;;;5092114;28;20063;-49
2024/01/24 09:58:44;;;;;;;32.50;7.97;;;9.90;78.90;;;;;;5091739;28;20032;-48
2024/01/24 10:01:14;;;;;;;26.98;6.78;;;10.00;78.80;;;;;;5092172;28;20357;-47
2024/01/24 10:03:45;;;;;;;31.60;7.57;;;10.00;78.30;;;;;;5092107;28;20061;-49
2024/01/24 10:06:12;;;;;;;33.15;7.15;;;10.00;78.20;;;;;;5073986;28;20032;-47
2024/01/24 10:08:39;;;;;;;26.35;7.05;;;10.00;78.10;;;;;;5091650;28;20035;-46
2024/01/24 10:11:06;;;;;;;30.08;7.95;;;9.90;78.30;;;;;;5092131;28;20451;-49
2024/01/24 10:13:35;;;;;;;31.67;7.03;;;9.90;78.60;;;;;;5091446;28;20032;-47
2024/01/24 10:16:05;;;;;;;25.52;6.85;;;9.90;78.70;;;;;;5091819;28;20024;-49
2024/01/24 10:18:32;;;;;;;41.38;7.88;;;9.90;78.80;;;;;;5091943;28;20036;-48
2024/01/24 10:21:04;;;;;;;37.53;8.32;;;10.00;78.40;;;;;;5090980;28;20513;-50
2024/01/24 10:23:34;;;;;;;30.95;8.25;;;10.00;78.30;;;;;;5091781;28;20048;-49
2024/01/24 10:26:01;;;;;;;31.58;7.00;;;10.00;78.70;;;;;;5091291;28;20081;-50
2024/01/24 10:28:27;;;;;;;31.80;8.20;;;10.00;78.60;;;;;;5091841;28;20386;-50
2024/01/24 10:30:53;;;;;;;38.83;7.45;;;10.00;78.30;;;;;;5091791;28;20107;-49
2024/01/24 10:33:19;;;;;;;30.67;7.22;;;9.90;78.60;;;;;;5091824;28;20321;-47
2024/01/24 10:35:52;;;;;;;28.08;7.85;;;9.90;78.20;;;;;;5091278;28;20016;-47
2024/01/24 10:38:22;;;;;;;32.90;7.72;;;9.90;78.20;;;;;;5091944;28;20032;-51
2024/01/24 10:40:52;;;;;;;33.92;7.20;;;9.90;78.50;;;;;;5091828;28;20027;-48
2024/01/24 10:43:23;;;;;;;32.45;7.40;;;9.90;78.60;;;;;;5091012;28;20032;-47
2024/01/24 10:45:51;;;;;;;33.78;8.00;;;9.90;78.50;;;;;;5091527;28;20361;-48
2024/01/24 10:48:18;;;;;;;30.20;6.70;;;9.90;78.90;;;;;;5091742;28;20588;-48
2024/01/24 10:50:48;;;;;;;26.05;7.15;;;9.90;78.90;;;;;;5091623;28;20031;-47
2024/01/24 10:53:20;;;;;;;;;;;9.90;79.00;;;;;;5091630;28;20063;-49
2024/01/24 10:55:50;;;;;;;28.88;6.88;;;9.90;78.70;;;;;;5091586;28;19908;-48
2024/01/24 10:58:20;;;;;;;26.77;6.72;;;9.80;78.60;;;;;;5091295;28;20432;-50
2024/01/24 11:00:47;;;;;;;23.73;7.50;;;9.80;78.70;;;;;;5091458;28;20372;-47
2024/01/24 11:03:17;;;;;;;37.60;10.75;;;9.90;78.90;;;;;;5072554;28;20024;-49
2024/01/24 11:05:48;;;;;;;37.22;9.07;;;9.90;79.40;;;;;;5091754;28;20030;-47
2024/01/24 11:08:32;;;;;;;29.80;7.60;;;9.90;78.90;;;;;;5091442;28;20368;-48
2024/01/24 11:11:09;;;;;;;42.97;8.75;;;9.90;78.80;;;;;;5091000;28;20032;-49
2024/01/24 11:13:35;;;;;;;28.85;6.88;;;9.90;78.70;;;;;;5070979;28;20108;-49
2024/01/24 11:16:25;;;;;;;30.63;8.60;;;9.90;78.50;;;;;;5071139;28;20131;-48
2024/01/24 11:18:53;;;;;;;45.20;9.32;;;9.90;79.10;;;;;;5071068;28;20064;-49
2024/01/24 11:21:23;;;;;;;35.35;8.25;;;9.90;79.30;;;;;;5085598;28;20075;-50
2024/01/24 11:23:50;;;;;;;33.25;9.10;;;9.90;79.00;;;;;;5091692;28;20043;-49
2024/01/24 11:26:22;;;;;;;27.48;7.28;;;9.90;79.10;;;;;;5094911;28;20016;-47
2024/01/24 11:28:48;;;;;;;32.47;8.50;;;9.90;79.30;;;;;;5094532;28;20020;-50
2024/01/24 11:31:36;;;;;;;45.13;9.82;;;9.80;79.10;;;;;;5095041;28;20102;-49
2024/01/24 11:34:12;;;;;;;39.20;9.68;;;9.80;79.00;;;;;;5094704;28;20016;-48
2024/01/24 11:36:51;;;;;;;34.88;10.20;;;9.70;79.80;;;;;;5094716;28;20313;-48
2024/01/24 11:39:37;;;;;;;34.22;7.90;;;9.60;79.90;;;;;;5094190;28;20386;-48
2024/01/24 11:42:43;;;;;;;43.40;9.27;;;9.60;80.10;;;;;;5094126;28;20117;-48
2024/01/24 11:45:22;;;;;;;37.38;9.38;;;9.60;80.20;;;;;;5094061;28;20025;-47
2024/01/24 11:47:48;;;;;;;30.58;9.63;;;9.70;80.10;;;;;;5093715;28;20031;-48
2024/01/24 11:50:14;;;;;;;39.78;8.30;;;9.70;79.70;;;;;;5076449;28;20341;-48
2024/01/24 11:52:41;;;;;;;41.65;9.68;;;9.70;79.70;;;;;;5094741;28;20047;-48
2024/01/24 11:55:07;;;;;;;37.35;10.70;;;9.70;79.60;;;;;;5094132;28;20548;-48
2024/01/24 11:57:34;;;;;;;33.22;7.80;;;9.70;79.90;;;;;;5075725;28;20111;-47
2024/01/24 12:00:03;;;;;;;29.02;7.85;;;9.70;80.00;;;;;;5094497;28;20363;-47
2024/01/24 12:02:30;;;;;;;36.08;9.32;;;9.70;80.00;;;;;;5093629;28;20028;-49
2024/01/24 12:04:57;;;;;;;32.00;8.23;;;9.60;80.20;;;;;;5094382;28;20032;-47
2024/01/24 12:07:24;;;;;;;37.50;8.48;;;9.60;80.70;;;;;;5076447;28;20088;-49
2024/01/24 12:09:53;;;;;;;34.05;9.35;;;9.70;79.90;;;;;;5093493;28;20031;-48
2024/01/24 12:12:20;;;;;;;39.83;10.68;;;9.70;80.10;;;;;;5093962;28;20020;-47
2024/01/24 12:14:47;;;;;;;35.63;8.45;;;9.70;79.90;;;;;;5093437;28;20073;-49
2024/01/24 12:17:15;;;;;;;37.42;9.43;;;9.70;80.30;;;;;;5093809;28;20031;-52
2024/01/24 12:19:45;;;;;;;40.88;11.00;;;9.70;80.40;;;;;;5094077;28;20120;-48
2024/01/24 12:22:13;;;;;;;34.40;10.00;;;9.70;80.40;;;;;;5093089;28;20048;-48
2024/01/24 12:24:42;;;;;;;35.08;11.35;;;9.70;80.40;;;;;;5093845;28;20772;-50
2024/01/24 12:27:08;;;;;;;36.15;9.05;;;9.80;80.20;;;;;;5093189;28;20114;-53
2024/01/24 12:29:34;;;;;;;38.10;9.77;;;9.80;80.00;;;;;;5075934;28;20111;-47
2024/01/24 12:32:03;;;;;;;41.28;11.15;;;9.80;80.10;;;;;;5093244;28;20405;-47
2024/01/24 12:34:29;;;;;;;50.80;11.48;;;9.80;79.90;;;;;;5075689;28;20028;-48
2024/01/24 12:37:00;;;;;;;31.25;8.13;;;9.80;80.40;;;;;;5093690;28;20499;-49
2024/01/24 12:39:33;;;;;;;40.05;8.70;;;9.90;80.20;;;;;;5093138;28;20086;-50
2024/01/24 12:42:00;;;;;;;45.97;9.85;;;9.80;80.00;;;;;;5093079;28;20733;-50
2024/01/24 12:44:27;;;;;;;49.97;11.27;;;9.80;80.30;;;;;;5093640;28;20355;-51
2024/01/24 12:46:58;;;;;;;39.75;10.85;;;9.70;80.70;;;;;;5093798;28;20027;-49